Time;durP1;ratioP1;P1;durP2;ratioP2;P2;SDS_P1;SDS_P2;PMS_P1;PMS_P2;Temp;Humidity;BMP_temperature;BMP_pressure;BME280_temperature;BME280_humidity;BME280_pressure;Samples;Min_cycle;Max_cycle;Signal;HPM_P1;HPM_P2
2023/10/20 00:01:12;;;;;;;18.55;9.57;;;512.60;2380.80;;;;;;4991732;28;20381;-58
2023/10/20 00:03:38;;;;;;;18.90;9.45;;;512.40;2380.80;;;;;;4991806;28;20042;-59
2023/10/20 00:06:04;;;;;;;12.90;8.38;;;512.30;2380.80;;;;;;4992324;28;20025;-58
2023/10/20 00:08:31;;;;;;;13.50;8.10;;;512.20;2380.80;;;;;;4991878;28;20026;-59
2023/10/20 00:11:06;;;;;;;11.90;6.10;;;512.30;2380.80;;;;;;4992243;28;20027;-59
2023/10/20 00:13:32;;;;;;;19.23;11.98;;;512.20;2380.80;;;;;;4991114;28;20074;-59
2023/10/20 00:15:58;;;;;;;19.80;10.27;;;512.30;2380.80;;;;;;4992160;28;20057;-58
2023/10/20 00:18:24;;;;;;;16.40;10.98;;;512.20;2380.80;;;;;;4969466;28;20049;-58
2023/10/20 00:20:50;;;;;;;20.20;10.35;;;512.20;2380.80;;;;;;4984881;28;20076;-58
2023/10/20 00:23:16;;;;;;;15.68;10.63;;;512.20;2380.80;;;;;;4991872;28;20448;-60
2023/10/20 00:25:42;;;;;;;17.38;11.73;;;512.10;2380.80;;;;;;4991888;28;20023;-58
2023/10/20 00:28:11;;;;;;;21.85;9.40;;;487.30;2380.80;;;;;;4992075;28;20030;-58
2023/10/20 00:30:39;;;;;;;21.38;11.20;;;487.20;2380.80;;;;;;4991950;28;20546;-60
2023/10/20 00:33:05;;;;;;;14.48;6.97;;;487.20;2380.80;;;;;;4989360;28;20476;-60
2023/10/20 00:35:32;;;;;;;39.05;12.95;;;487.30;2380.80;;;;;;4991796;28;20042;-57
2023/10/20 00:37:58;;;;;;;19.67;10.23;;;487.30;2380.80;;;;;;4991947;28;20033;-59
2023/10/20 00:40:25;;;;;;;14.15;6.75;;;487.30;2380.80;;;;;;4992234;28;20022;-58
2023/10/20 00:42:51;;;;;;;13.48;10.02;;;487.20;2380.80;;;;;;4991475;28;20421;-60
2023/10/20 00:45:17;;;;;;;13.32;6.82;;;487.20;2380.80;;;;;;4991756;28;20054;-58
2023/10/20 00:47:46;;;;;;;10.32;7.35;;;487.00;2380.80;;;;;;4991657;28;20062;-60
2023/10/20 00:50:13;;;;;;;15.73;7.97;;;487.00;2380.80;;;;;;4991833;28;20117;-58
2023/10/20 00:52:45;;;;;;;18.48;14.73;;;487.00;2380.80;;;;;;4991619;28;20106;-58
2023/10/20 00:55:13;;;;;;;11.50;7.35;;;487.20;2380.80;;;;;;4973305;28;20031;-58
2023/10/20 00:57:41;;;;;;;10.70;6.82;;;487.30;2380.80;;;;;;4988121;28;20484;-58
2023/10/20 01:00:09;;;;;;;15.98;7.47;;;487.30;2380.80;;;;;;4991647;28;20455;-59
2023/10/20 01:02:37;;;;;;;14.63;7.45;;;487.20;2380.80;;;;;;4991306;28;20066;-58
2023/10/20 01:05:06;;;;;;;13.88;6.30;;;487.10;2380.80;;;;;;4990573;28;20030;-59
2023/10/20 01:07:33;;;;;;;13.15;7.00;;;487.10;2380.80;;;;;;4991797;28;20038;-59
2023/10/20 01:10:06;;;;;;;17.35;7.65;;;487.10;2380.80;;;;;;4991177;28;20027;-58
2023/10/20 01:12:32;;;;;;;19.67;6.53;;;487.20;2380.80;;;;;;4991416;28;20082;-57
2023/10/20 01:14:59;;;;;;;10.35;5.65;;;487.30;2380.80;;;;;;4991361;28;20050;-57
2023/10/20 01:17:26;;;;;;;9.40;5.90;;;512.10;2380.80;;;;;;4991775;28;20072;-57
2023/10/20 01:19:52;;;;;;;12.43;6.43;;;512.10;2380.80;;;;;;4991055;28;20076;-58
2023/10/20 01:22:18;;;;;;;14.00;5.60;;;512.20;2380.80;;;;;;4991351;28;20046;-57
2023/10/20 01:24:43;;;;;;;14.50;6.57;;;512.30;2380.80;;;;;;4974720;28;20042;-58
2023/10/20 01:27:09;;;;;;;12.13;6.18;;;512.30;2380.80;;;;;;4981738;28;20066;-59
2023/10/20 01:29:35;;;;;;;12.93;7.47;;;512.30;2380.80;;;;;;4991517;28;20476;-58
2023/10/20 01:32:01;;;;;;;16.73;7.57;;;512.10;2380.80;;;;;;4991028;28;20031;-57
2023/10/20 01:34:26;;;;;;;13.48;8.50;;;487.30;2380.80;;;;;;4978581;28;20030;-58
2023/10/20 01:36:52;;;;;;;14.50;7.45;;;487.20;2380.80;;;;;;4990788;28;20026;-59
2023/10/20 01:39:19;;;;;;;14.13;7.20;;;487.10;2380.80;;;;;;4991125;28;20022;-58
2023/10/20 01:41:45;;;;;;;13.85;6.75;;;487.00;2380.80;;;;;;4990649;28;20398;-59
2023/10/20 01:44:13;;;;;;;11.00;7.20;;;487.10;2380.80;;;;;;4990576;28;20026;-58
2023/10/20 01:46:39;;;;;;;13.27;6.28;;;486.90;2380.80;;;;;;4990321;28;20085;-58
2023/10/20 01:49:05;;;;;;;10.77;6.25;;;486.80;2380.80;;;;;;4991227;28;20037;-58
2023/10/20 01:51:31;;;;;;;8.45;5.88;;;486.90;2380.80;;;;;;4990115;28;20105;-58
2023/10/20 01:53:58;;;;;;;13.18;6.95;;;487.00;2380.80;;;;;;4979246;28;20537;-57
2023/10/20 01:56:24;;;;;;;12.80;5.78;;;486.70;2380.80;;;;;;4975194;28;20022;-57
2023/10/20 01:58:49;;;;;;;10.57;6.30;;;486.80;2380.80;;;;;;4990508;28;20448;-57
2023/10/20 02:01:15;;;;;;;9.68;6.20;;;486.80;2380.80;;;;;;4990106;28;20069;-58
2023/10/20 02:03:41;;;;;;;12.88;7.03;;;486.90;2380.80;;;;;;4990646;28;20030;-58
2023/10/20 02:06:07;;;;;;;15.65;9.50;;;486.80;2380.80;;;;;;4989506;28;20019;-58
2023/10/20 02:08:34;;;;;;;22.60;14.65;;;486.80;2380.80;;;;;;4990560;28;20034;-58
2023/10/20 02:11:00;;;;;;;45.40;32.50;;;486.80;2380.80;;;;;;4989948;28;20034;-57
2023/10/20 02:13:26;;;;;;;12.63;6.85;;;486.70;2380.80;;;;;;4990308;28;20057;-59
2023/10/20 02:15:52;;;;;;;20.13;15.05;;;486.80;2380.80;;;;;;4989840;28;20034;-59
2023/10/20 02:18:18;;;;;;;31.58;26.63;;;486.70;2380.80;;;;;;4990412;28;20023;-58
2023/10/20 02:20:44;;;;;;;14.45;7.70;;;486.50;2380.80;;;;;;4989746;28;20143;-59
2023/10/20 02:23:11;;;;;;;23.48;13.38;;;486.50;2380.80;;;;;;4989615;28;20038;-59
2023/10/20 02:25:37;;;;;;;15.45;8.50;;;486.50;2380.80;;;;;;4976838;28;20031;-59
2023/10/20 02:28:02;;;;;;;13.30;7.25;;;486.40;2380.80;;;;;;4972476;28;20477;-58
2023/10/20 02:30:33;;;;;;;84.13;52.33;;;486.50;2380.80;;;;;;4989395;28;20022;-58
2023/10/20 02:33:00;;;;;;;18.52;10.50;;;486.40;2380.80;;;;;;4989632;28;20109;-58
2023/10/20 02:35:26;;;;;;;19.05;10.10;;;486.40;2380.80;;;;;;4989668;28;20029;-58
2023/10/20 02:37:51;;;;;;;22.48;15.32;;;461.70;2380.80;;;;;;4989403;28;20034;-58
2023/10/20 02:40:18;;;;;;;25.52;12.15;;;461.70;2380.80;;;;;;4989904;28;20467;-58
2023/10/20 02:42:44;;;;;;;20.73;8.43;;;461.70;2380.80;;;;;;4989853;28;20038;-58
2023/10/20 02:45:10;;;;;;;16.50;9.80;;;461.70;2380.80;;;;;;4989217;28;20029;-58
2023/10/20 02:47:37;;;;;;;59.38;37.97;;;461.30;2380.80;;;;;;4990360;28;20058;-60
2023/10/20 02:50:03;;;;;;;17.75;8.65;;;461.40;2380.80;;;;;;4989781;28;20038;-59
2023/10/20 02:52:29;;;;;;;19.08;11.25;;;461.40;2380.80;;;;;;4989240;28;20117;-58
2023/10/20 02:54:55;;;;;;;13.77;8.10;;;461.40;2380.80;;;;;;4989144;28;20117;-56
2023/10/20 02:57:21;;;;;;;15.57;9.38;;;461.40;2380.80;;;;;;4989610;28;20035;-57
2023/10/20 02:59:48;;;;;;;37.15;26.05;;;461.30;2380.80;;;;;;4990078;28;20464;-58
2023/10/20 03:02:20;;;;;;;23.58;14.93;;;461.30;2380.80;;;;;;4965073;28;20097;-58
2023/10/20 03:04:46;;;;;;;48.90;29.75;;;461.20;2380.80;;;;;;4978784;28;20026;-58
2023/10/20 03:07:12;;;;;;;71.68;40.83;;;461.10;2380.80;;;;;;4989487;28;20027;-57
2023/10/20 03:09:38;;;;;;;24.05;17.20;;;461.10;2380.80;;;;;;4981309;28;20424;-58
2023/10/20 03:12:04;;;;;;;24.67;10.07;;;461.00;2380.80;;;;;;4984807;28;20029;-58
2023/10/20 03:14:31;;;;;;;28.98;18.38;;;460.90;2380.80;;;;;;4989162;28;20098;-58
2023/10/20 03:16:57;;;;;;;22.20;12.20;;;460.90;2380.80;;;;;;4988815;28;20034;-58
2023/10/20 03:19:23;;;;;;;15.35;9.55;;;436.10;2355.20;;;;;;4992080;28;20391;-59
2023/10/20 03:21:49;;;;;;;96.38;57.30;;;436.10;2355.20;;;;;;4992944;28;20018;-58
2023/10/20 03:24:14;;;;;;;36.55;22.67;;;436.10;2355.20;;;;;;4993513;28;20030;-57
2023/10/20 03:26:41;;;;;;;19.00;12.18;;;460.80;2380.80;;;;;;4992810;28;20030;-57
2023/10/20 03:29:08;;;;;;;20.77;10.30;;;436.10;2355.20;;;;;;4993538;28;20036;-57
2023/10/20 03:31:34;;;;;;;16.77;10.10;;;435.90;2355.20;;;;;;4992745;28;20041;-58
2023/10/20 03:34:00;;;;;;;49.83;27.48;;;436.00;2355.20;;;;;;4975735;28;20416;-57
2023/10/20 03:36:27;;;;;;;25.27;13.18;;;436.10;2355.20;;;;;;4985161;28;20048;-57
2023/10/20 03:38:53;;;;;;;16.02;7.55;;;460.80;2380.80;;;;;;4993074;28;20038;-57
2023/10/20 03:41:19;;;;;;;18.83;9.38;;;460.90;2380.80;;;;;;4992648;28;20346;-58
2023/10/20 03:43:45;;;;;;;36.15;21.80;;;461.00;2380.80;;;;;;4984501;28;20050;-58
2023/10/20 03:46:13;;;;;;;17.23;9.70;;;461.00;2380.80;;;;;;4958527;28;20381;-58
2023/10/20 03:48:40;;;;;;;14.30;8.52;;;461.00;2380.80;;;;;;4993547;28;20027;-57
2023/10/20 03:51:11;;;;;;;22.70;8.95;;;461.10;2380.80;;;;;;4992828;28;20019;-57
2023/10/20 03:53:46;;;;;;;18.77;9.00;;;461.10;2380.80;;;;;;4993153;28;20109;-57
2023/10/20 03:56:12;;;;;;;10.10;7.53;;;461.10;2380.80;;;;;;4992350;28;20098;-58
2023/10/20 03:58:38;;;;;;;14.95;9.13;;;461.00;2380.80;;;;;;4992768;28;20461;-57
2023/10/20 04:01:06;;;;;;;14.88;8.68;;;461.00;2380.80;;;;;;4992294;28;20038;-58
2023/10/20 04:03:32;;;;;;;15.20;8.82;;;461.00;2380.80;;;;;;4987368;28;20093;-58
2023/10/20 04:05:58;;;;;;;16.08;8.82;;;461.00;2380.80;;;;;;4980900;28;20018;-58
2023/10/20 04:08:24;;;;;;;19.02;10.48;;;461.10;2380.80;;;;;;4992649;28;20030;-58
2023/10/20 04:10:57;;;;;;;21.98;12.02;;;461.10;2380.80;;;;;;4992461;28;20029;-58
2023/10/20 04:13:23;;;;;;;35.17;20.38;;;461.20;2380.80;;;;;;4992551;28;20061;-58
2023/10/20 04:15:50;;;;;;;20.02;10.13;;;461.10;2380.80;;;;;;4991887;28;20491;-58
2023/10/20 04:18:16;;;;;;;18.08;8.80;;;461.10;2380.80;;;;;;4992515;28;20030;-57
2023/10/20 04:20:42;;;;;;;16.73;9.05;;;461.30;2380.80;;;;;;4992123;28;20022;-57
2023/10/20 04:23:08;;;;;;;23.05;10.57;;;461.10;2380.80;;;;;;4992395;28;20447;-57
2023/10/20 04:25:49;;;;;;;19.45;10.68;;;461.00;2380.80;;;;;;4966352;28;20134;-57
2023/10/20 04:28:16;;;;;;;30.52;19.92;;;461.10;2380.80;;;;;;4992332;28;20451;-57
2023/10/20 04:42:19;;;;;;;15.80;7.00;;;461.30;2380.80;;;;;;4992201;28;20503;-57
2023/10/20 04:50:25;;;;;;;16.92;8.75;;;461.10;2380.80;;;;;;4992172;28;20029;-59
2023/10/20 04:52:58;;;;;;;15.88;9.07;;;461.20;2380.80;;;;;;4990942;28;20053;-56
2023/10/20 05:01:04;;;;;;;22.20;8.55;;;461.10;2380.80;;;;;;4950298;29;20390;-58
2023/10/20 05:03:34;;;;;;;14.13;7.60;;;461.10;2380.80;;;;;;4951001;29;20172;-58
2023/10/20 05:06:22;;;;;;;19.90;9.32;;;461.10;2380.80;;;;;;4950048;29;20113;-59
2023/10/20 05:08:49;;;;;;;16.85;7.88;;;461.20;2380.80;;;;;;4944700;29;20584;-58
2023/10/20 05:11:15;;;;;;;16.08;8.73;;;461.20;2380.80;;;;;;4951526;29;20098;-58
2023/10/20 05:13:41;;;;;;;12.23;7.30;;;461.20;2380.80;;;;;;4949752;29;20062;-59
2023/10/20 05:16:10;;;;;;;17.52;7.22;;;461.30;2380.80;;;;;;4950567;29;20039;-59
2023/10/20 05:18:38;;;;;;;20.50;6.97;;;461.50;2380.80;;;;;;4950503;29;20498;-59
2023/10/20 05:21:05;;;;;;;14.88;7.32;;;461.50;2380.80;;;;;;4950312;29;20023;-58
2023/10/20 05:23:33;;;;;;;14.35;7.75;;;461.60;2380.80;;;;;;4949586;29;20051;-57
2023/10/20 05:25:59;;;;;;;14.77;8.82;;;461.60;2380.80;;;;;;4949988;29;20445;-57
2023/10/20 05:28:26;;;;;;;11.60;6.75;;;461.60;2380.80;;;;;;4949868;29;20529;-57
2023/10/20 05:30:52;;;;;;;15.10;8.80;;;461.50;2380.80;;;;;;4949879;29;20074;-58
2023/10/20 05:33:18;;;;;;;16.27;7.03;;;461.50;2380.80;;;;;;4949938;29;20482;-57
2023/10/20 05:35:43;;;;;;;15.57;8.52;;;461.50;2380.80;;;;;;4978362;28;20030;-56
2023/10/20 05:38:09;;;;;;;14.40;8.90;;;461.50;2380.80;;;;;;4990950;28;20472;-57
2023/10/20 05:40:36;;;;;;;12.13;7.97;;;461.50;2380.80;;;;;;4978403;28;20477;-58
2023/10/20 05:43:05;;;;;;;23.05;17.90;;;461.50;2380.80;;;;;;4986595;28;20492;-60
2023/10/20 05:45:37;;;;;;;17.60;9.07;;;461.50;2380.80;;;;;;4989733;28;20084;-59
2023/10/20 05:48:05;;;;;;;15.65;9.52;;;461.50;2380.80;;;;;;4990688;28;20378;-58
2023/10/20 05:50:35;;;;;;;14.20;8.40;;;461.50;2380.80;;;;;;4990845;28;20015;-58
2023/10/20 05:53:01;;;;;;;16.95;9.55;;;461.50;2380.80;;;;;;4990582;28;20121;-58
2023/10/20 05:55:26;;;;;;;12.90;8.02;;;461.30;2380.80;;;;;;4990917;28;20054;-57
2023/10/20 05:57:52;;;;;;;14.90;8.55;;;461.30;2380.80;;;;;;4990650;28;20030;-59
2023/10/20 06:00:18;;;;;;;17.92;9.32;;;461.50;2380.80;;;;;;4990494;28;20064;-57
2023/10/20 06:02:46;;;;;;;14.27;7.50;;;461.50;2380.80;;;;;;4990517;28;20080;-57
2023/10/20 06:05:13;;;;;;;14.85;7.57;;;461.70;2380.80;;;;;;4990826;28;20455;-57
2023/10/20 06:07:40;;;;;;;12.27;7.72;;;486.50;2380.80;;;;;;4990375;28;20022;-60
2023/10/20 06:10:08;;;;;;;11.65;7.90;;;486.70;2380.80;;;;;;4991091;28;20027;-58
2023/10/20 06:12:34;;;;;;;12.43;8.00;;;486.80;2380.80;;;;;;4965630;28;20054;-58
2023/10/20 06:15:00;;;;;;;14.07;8.32;;;487.00;2380.80;;;;;;4979209;28;20037;-56
2023/10/20 06:17:25;;;;;;;10.95;7.30;;;487.00;2380.80;;;;;;4989676;28;20380;-58
2023/10/20 06:19:51;;;;;;;13.88;8.40;;;487.10;2380.80;;;;;;4990346;28;20026;-55
2023/10/20 06:22:17;;;;;;;16.05;8.50;;;487.00;2380.80;;;;;;4989048;28;20391;-58
2023/10/20 06:24:43;;;;;;;13.65;8.07;;;486.90;2380.80;;;;;;4989425;28;20027;-58
2023/10/20 06:27:11;;;;;;;18.25;9.68;;;487.10;2380.80;;;;;;4988015;28;20046;-59
2023/10/20 06:29:56;;;;;;;21.92;9.20;;;487.20;2380.80;;;;;;4979536;28;20048;-57
2023/10/20 06:34:48;;;;;;;17.90;9.82;;;512.10;2380.80;;;;;;4989647;28;20465;-60
2023/10/20 06:37:22;;;;;;;26.58;12.55;;;512.20;2380.80;;;;;;4989854;28;20090;-57
2023/10/20 06:39:48;;;;;;;27.83;12.93;;;512.20;2380.80;;;;;;4989501;28;20015;-58
2023/10/20 06:42:14;;;;;;;18.00;11.85;;;512.40;2380.80;;;;;;4989957;28;20361;-57
2023/10/20 06:44:39;;;;;;;33.35;13.55;;;512.60;2380.80;;;;;;4989528;28;20089;-57
2023/10/20 06:47:05;;;;;;;23.90;13.55;;;512.90;2380.80;;;;;;4990060;28;20581;-59
2023/10/20 06:49:32;;;;;;;31.20;17.35;;;512.90;2380.80;;;;;;4974183;28;20089;-59
2023/10/20 06:52:03;;;;;;;66.65;32.13;;;512.90;2380.80;;;;;;4984168;28;20050;-73
2023/10/20 06:54:29;;;;;;;40.80;26.40;;;512.90;2380.80;;;;;;4976337;28;20030;-79
2023/10/20 06:56:55;;;;;;;38.47;23.80;;;537.70;2406.40;;;;;;4995689;28;20058;-77
2023/10/20 06:59:21;;;;;;;33.50;20.17;;;538.00;2406.40;;;;;;4989790;28;20069;-72
2023/10/20 07:01:46;;;;;;;29.23;16.75;;;537.80;2406.40;;;;;;4989523;28;20023;-75
2023/10/20 07:04:13;;;;;;;22.88;14.23;;;537.90;2406.40;;;;;;4989291;28;20054;-74
2023/10/20 07:06:41;;;;;;;23.75;13.43;;;538.00;2406.40;;;;;;4989435;28;20030;-71
2023/10/20 07:09:11;;;;;;;23.17;13.70;;;538.00;2406.40;;;;;;4989943;28;20057;-70
2023/10/20 07:11:41;;;;;;;26.90;13.40;;;563.60;2432.00;;;;;;4990334;28;20022;-72
2023/10/20 07:14:07;;;;;;;25.35;12.43;;;589.30;2432.00;;;;;;4964773;28;20054;-73
2023/10/20 07:16:33;;;;;;;146.57;131.40;;;614.70;2432.00;;;;;;4989447;28;20026;-78
2023/10/20 07:19:01;;;;;;;24.20;15.80;;;615.00;2432.00;;;;;;4989020;28;20030;-73
2023/10/20 07:21:27;;;;;;;21.52;14.40;;;589.70;2432.00;;;;;;4989155;28;20026;-73
2023/10/20 07:23:53;;;;;;;22.10;14.30;;;589.40;2432.00;;;;;;4989446;28;20034;-75
2023/10/20 07:26:19;;;;;;;28.23;15.80;;;588.90;2432.00;;;;;;4972829;28;20015;-78
2023/10/20 07:28:45;;;;;;;22.20;11.80;;;564.00;2432.00;;;;;;4967482;28;20030;-71
2023/10/20 07:31:15;;;;;;;17.13;11.18;;;563.70;2432.00;;;;;;4984515;28;20023;-72
2023/10/20 07:33:41;;;;;;;27.05;9.05;;;563.60;2432.00;;;;;;4978219;28;20377;-75
2023/10/20 07:36:07;;;;;;;17.95;10.60;;;563.60;2432.00;;;;;;4987847;28;20030;-75
2023/10/20 07:38:33;;;;;;;19.60;12.85;;;563.90;2432.00;;;;;;4989472;28;20030;-73
2023/10/20 07:41:06;;;;;;;26.65;15.85;;;563.90;2432.00;;;;;;4989257;28;20026;-76
2023/10/20 07:43:32;;;;;;;;;;;589.00;2432.00;;;;;;4968789;28;20038;-80
2023/10/20 07:45:58;;;;;;;35.28;31.65;;;640.40;2432.00;;;;;;4989638;28;19906;-77
2023/10/20 07:48:25;;;;;;;27.40;23.83;;;640.40;2380.80;;;;;;4989173;28;20037;-78
2023/10/20 07:50:52;;;;;;;21.55;12.80;;;666.00;2329.60;;;;;;4989362;28;20022;-75
2023/10/20 07:53:18;;;;;;;21.70;12.93;;;691.60;2252.80;;;;;;4974308;28;20030;-72
2023/10/20 07:55:44;;;;;;;21.98;12.93;;;691.60;2227.20;;;;;;4969153;28;20090;-72
2023/10/20 07:58:10;;;;;;;23.75;12.13;;;691.70;2150.40;;;;;;4970447;28;20026;-76
2023/10/20 08:00:36;;;;;;;21.75;12.65;;;691.30;2176.00;;;;;;4970344;28;20082;-75
2023/10/20 08:03:02;;;;;;;18.33;12.30;;;666.50;2176.00;;;;;;4970033;28;20039;-71
2023/10/20 08:05:29;;;;;;;22.33;11.75;;;666.10;2201.60;;;;;;4972955;28;20019;-76
2023/10/20 08:07:58;;;;;;;17.40;10.70;;;666.00;2227.20;;;;;;4973757;28;20026;-76
2023/10/20 08:10:24;;;;;;;23.05;11.55;;;665.70;2201.60;;;;;;4973619;28;20035;-75
2023/10/20 08:12:49;;;;;;;21.55;11.70;;;666.00;2252.80;;;;;;4973361;28;20053;-75
2023/10/20 08:15:15;;;;;;;26.80;13.95;;;717.10;2099.20;;;;;;4964304;28;20541;-75
2023/10/20 08:17:44;;;;;;;34.47;22.38;;;768.40;1996.80;;;;;;4954194;29;20058;-69
2023/10/20 08:20:11;;;;;;;51.00;28.58;;;768.40;1971.20;;;;;;4954141;29;20106;-71
2023/10/20 08:22:37;;;;;;;44.97;23.58;;;793.70;1894.40;;;;;;4953797;29;20050;-75
2023/10/20 08:25:03;;;;;;;30.73;17.50;;;819.30;1792.00;;;;;;4954263;29;20039;-75
2023/10/20 08:27:29;;;;;;;31.27;20.02;;;870.50;1689.60;;;;;;4954158;29;20107;-75
2023/10/20 08:29:57;;;;;;;29.25;21.10;;;870.70;1664.00;;;;;;4964926;28;20113;-77
2023/10/20 08:32:26;;;;;;;25.67;19.35;;;870.90;1612.80;;;;;;4973668;28;20041;-77
2023/10/20 08:34:53;;;;;;;37.97;21.92;;;896.80;1536.00;;;;;;4973107;28;20110;-76
2023/10/20 08:37:19;;;;;;;26.58;20.33;;;922.40;1536.00;;;;;;4972888;28;20039;-72
2023/10/20 08:39:45;;;;;;;34.97;24.42;;;947.70;1484.80;;;;;;4973134;28;20458;-75
2023/10/20 08:42:18;;;;;;;23.20;16.55;;;972.90;1433.60;;;;;;4973148;28;20504;-73
2023/10/20 08:44:45;;;;;;;37.20;16.77;;;973.70;1382.40;;;;;;4973190;28;20034;-77
2023/10/20 08:47:12;;;;;;;18.95;7.47;;;973.20;1331.20;;;;;;4973102;28;20030;-78
2023/10/20 08:49:39;;;;;;;11.65;6.35;;;947.50;1280.00;;;;;;4972992;28;20377;-73
2023/10/20 08:52:10;;;;;;;16.85;7.47;;;896.90;1331.20;;;;;;4973043;28;20109;-75
2023/10/20 08:54:36;;;;;;;13.07;6.45;;;870.70;1433.60;;;;;;4973121;28;20034;-73
2023/10/20 08:57:02;;;;;;;12.60;5.93;;;844.90;1459.20;;;;;;4972849;28;20040;-74
2023/10/20 08:59:28;;;;;;;19.95;6.78;;;819.80;1459.20;;;;;;4972815;28;20385;-72
2023/10/20 09:01:54;;;;;;;11.38;5.70;;;794.40;1510.40;;;;;;4973014;28;20026;-80
2023/10/20 09:04:22;;;;;;;13.20;5.70;;;793.80;1536.00;;;;;;4972784;28;20031;-70
2023/10/20 09:06:48;;;;;;;17.33;6.30;;;768.70;1536.00;;;;;;4972671;28;20500;-72
2023/10/20 09:09:14;;;;;;;9.32;4.93;;;768.30;1561.60;;;;;;4972590;28;20033;-72
2023/10/20 09:11:43;;;;;;;14.40;6.47;;;743.20;1587.20;;;;;;4969371;28;20040;-75
2023/10/20 09:14:12;;;;;;;13.75;6.93;;;742.90;1612.80;;;;;;4968845;28;20079;-75
2023/10/20 09:16:44;;;;;;;16.08;5.57;;;742.80;1638.40;;;;;;4966924;28;20037;-71
2023/10/20 09:19:14;;;;;;;12.63;5.90;;;742.60;1638.40;;;;;;4968749;28;20030;-72
2023/10/20 09:21:44;;;;;;;12.63;5.63;;;742.40;1638.40;;;;;;4972338;28;20039;-78
2023/10/20 09:24:11;;;;;;;13.25;5.95;;;742.40;1638.40;;;;;;4972429;28;20453;-71
2023/10/20 09:26:39;;;;;;;14.38;6.13;;;742.40;1638.40;;;;;;4972460;28;20466;-76
2023/10/20 09:29:07;;;;;;;16.80;6.35;;;742.40;1664.00;;;;;;4972297;28;20417;-72
2023/10/20 09:31:33;;;;;;;18.42;8.25;;;717.70;1612.80;;;;;;4955002;28;20620;-73
2023/10/20 09:34:00;;;;;;;18.95;8.15;;;742.50;1664.00;;;;;;4971952;28;20725;-74
2023/10/20 09:36:29;;;;;;;17.38;6.60;;;742.60;1638.40;;;;;;4969106;28;20073;-74
2023/10/20 09:38:56;;;;;;;17.25;7.07;;;742.70;1664.00;;;;;;4970439;28;20397;-80
2023/10/20 09:41:24;;;;;;;14.50;5.75;;;742.60;1638.40;;;;;;4967701;28;20378;-72
2023/10/20 09:44:02;;;;;;;17.92;6.45;;;742.80;1664.00;;;;;;4960642;28;20066;-72
2023/10/20 09:46:36;;;;;;;12.57;6.22;;;742.80;1664.00;;;;;;4954015;28;20477;-70
2023/10/20 09:49:18;;;;;;;18.52;6.32;;;742.90;1612.80;;;;;;4958952;28;20026;-69
2023/10/20 09:51:45;;;;;;;14.75;7.43;;;743.00;1638.40;;;;;;4977099;28;20034;-70
2023/10/20 09:54:13;;;;;;;23.13;7.88;;;743.10;1612.80;;;;;;4962646;28;20036;-79
2023/10/20 09:56:42;;;;;;;13.90;7.03;;;743.10;1612.80;;;;;;4962230;28;20023;-78
2023/10/20 09:59:09;;;;;;;14.25;7.82;;;743.10;1612.80;;;;;;4962192;28;20124;-73
2023/10/20 10:01:37;;;;;;;16.00;7.13;;;743.00;1612.80;;;;;;4962893;28;20110;-80
2023/10/20 10:04:08;;;;;;;13.65;5.97;;;743.10;1612.80;;;;;;4961638;28;20445;-69
2023/10/20 10:06:38;;;;;;;19.92;5.80;;;743.10;1612.80;;;;;;4960466;28;20078;-78
2023/10/20 10:09:08;;;;;;;17.40;6.50;;;743.20;1638.40;;;;;;4961380;28;20062;-80
2023/10/20 10:11:42;;;;;;;19.60;6.63;;;743.30;1587.20;;;;;;4962495;28;20023;-80
2023/10/20 10:14:17;;;;;;;17.48;6.35;;;743.30;1587.20;;;;;;4961822;28;20074;-76
2023/10/20 10:16:56;;;;;;;17.85;7.95;;;768.20;1587.20;;;;;;4961056;28;20035;-75
2023/10/20 10:19:26;;;;;;;12.93;7.55;;;768.40;1612.80;;;;;;4966756;28;20508;-77
2023/10/20 10:21:53;;;;;;;20.70;10.68;;;768.50;1612.80;;;;;;4968078;28;20030;-77
2023/10/20 10:24:22;;;;;;;18.67;7.03;;;768.50;1587.20;;;;;;4969993;28;20111;-75
2023/10/20 10:27:06;;;;;;;21.48;7.57;;;768.70;1587.20;;;;;;4969473;28;20023;-74
2023/10/20 10:30:00;;;;;;;16.33;6.47;;;768.40;1561.60;;;;;;4967686;28;20477;-71
2023/10/20 10:32:31;;;;;;;16.65;6.40;;;768.60;1561.60;;;;;;4969963;28;20105;-78
2023/10/20 10:34:58;;;;;;;19.25;8.68;;;768.70;1561.60;;;;;;4970416;28;20026;-78
2023/10/20 10:37:34;;;;;;;11.27;7.13;;;768.70;1561.60;;;;;;4970497;28;20034;-75
2023/10/20 10:40:15;;;;;;;18.90;11.90;;;768.70;1536.00;;;;;;4968888;28;20033;-80
2023/10/20 10:42:46;;;;;;;20.20;8.20;;;768.60;1587.20;;;;;;4968581;28;20030;-75
2023/10/20 10:45:14;;;;;;;14.80;8.23;;;768.70;1561.60;;;;;;4967991;28;20109;-76
2023/10/20 10:47:40;;;;;;;17.58;9.73;;;768.70;1587.20;;;;;;4960368;28;20026;-72
2023/10/20 10:50:06;;;;;;;16.67;8.55;;;768.70;1587.20;;;;;;4962040;28;20376;-80
2023/10/20 10:52:35;;;;;;;17.17;6.93;;;768.70;1561.60;;;;;;4965305;28;20478;-79
2023/10/20 10:55:00;;;;;;;14.43;7.63;;;768.70;1536.00;;;;;;4970841;28;20042;-76
2023/10/20 10:57:26;;;;;;;17.30;9.40;;;768.70;1561.60;;;;;;4970703;28;20027;-78
2023/10/20 10:59:53;;;;;;;15.70;9.30;;;768.70;1561.60;;;;;;4970593;28;20031;-77
2023/10/20 11:02:20;;;;;;;27.67;11.73;;;768.70;1561.60;;;;;;4970684;28;20050;-77
2023/10/20 11:04:46;;;;;;;17.92;7.75;;;768.80;1536.00;;;;;;4970747;28;20023;-78
2023/10/20 11:07:13;;;;;;;25.35;8.43;;;768.70;1510.40;;;;;;4970488;28;20504;-80
2023/10/20 11:09:39;;;;;;;16.45;7.03;;;768.70;1536.00;;;;;;4970828;28;20043;-78
2023/10/20 11:12:09;;;;;;;25.42;7.63;;;768.70;1536.00;;;;;;4970519;28;20035;-75
2023/10/20 11:14:38;;;;;;;17.17;8.75;;;768.70;1484.80;;;;;;4970696;28;20053;-77
2023/10/20 11:17:04;;;;;;;17.27;6.80;;;768.80;1459.20;;;;;;4970700;28;20049;-70
2023/10/20 11:19:30;;;;;;;21.83;7.75;;;768.80;1484.80;;;;;;4970247;28;20515;-75
2023/10/20 11:21:56;;;;;;;18.27;7.85;;;768.90;1510.40;;;;;;4970510;28;20023;-79
2023/10/20 11:24:34;;;;;;;16.95;7.72;;;793.60;1587.20;;;;;;4970216;28;20045;-77
2023/10/20 11:27:05;;;;;;;17.60;8.27;;;793.70;1536.00;;;;;;4970325;28;20050;-79
2023/10/20 11:29:32;;;;;;;27.73;7.55;;;793.60;1510.40;;;;;;4970312;28;20098;-79
2023/10/20 11:32:06;;;;;;;17.05;8.68;;;793.70;1510.40;;;;;;4970337;28;20055;-76
2023/10/20 11:34:35;;;;;;;16.05;8.45;;;793.70;1510.40;;;;;;4952976;28;20031;-75
2023/10/20 11:37:02;;;;;;;23.17;8.23;;;793.70;1536.00;;;;;;4970314;28;20138;-79
2023/10/20 11:39:29;;;;;;;29.48;10.50;;;793.60;1484.80;;;;;;4971182;28;20045;-74
2023/10/20 11:41:55;;;;;;;17.00;6.90;;;793.70;1510.40;;;;;;4974082;28;20123;-77
2023/10/20 11:44:24;;;;;;;20.25;7.82;;;793.70;1510.40;;;;;;4970670;28;20038;-78
2023/10/20 11:46:53;;;;;;;17.63;6.68;;;768.90;1459.20;;;;;;4973614;28;20019;-74
2023/10/20 11:49:26;;;;;;;26.20;8.00;;;793.60;1484.80;;;;;;4978911;28;20109;-78
2023/10/20 11:51:52;;;;;;;19.02;7.80;;;793.60;1484.80;;;;;;4979724;28;20501;-78
2023/10/20 11:54:18;;;;;;;16.55;6.93;;;793.70;1484.80;;;;;;4973641;28;20074;-69
2023/10/20 11:56:44;;;;;;;21.50;9.32;;;793.70;1433.60;;;;;;4973967;28;20035;-77
2023/10/20 11:59:11;;;;;;;18.42;7.45;;;793.80;1433.60;;;;;;4973822;28;20033;-70
2023/10/20 12:01:38;;;;;;;23.55;10.70;;;793.90;1433.60;;;;;;4974068;28;20061;-78
2023/10/20 12:04:08;;;;;;;24.70;10.20;;;794.00;1433.60;;;;;;4973882;28;20492;-79
2023/10/20 12:06:37;;;;;;;21.83;8.48;;;794.00;1433.60;;;;;;4973831;28;20063;-75
2023/10/20 12:09:10;;;;;;;22.50;7.88;;;793.80;1433.60;;;;;;4973522;28;20031;-79
2023/10/20 12:11:37;;;;;;;26.35;7.25;;;793.70;1459.20;;;;;;4973716;28;20030;-78
2023/10/20 12:14:08;;;;;;;25.58;6.97;;;793.70;1408.00;;;;;;4973465;28;20125;-75
2023/10/20 12:16:34;;;;;;;26.00;7.55;;;768.90;1382.40;;;;;;4973697;28;20089;-77
2023/10/20 12:19:05;;;;;;;20.67;6.97;;;768.80;1408.00;;;;;;4973549;28;20027;-76
2023/10/20 12:21:31;;;;;;;18.33;6.90;;;768.60;1382.40;;;;;;4973392;28;20030;-77
2023/10/20 12:23:58;;;;;;;19.42;6.53;;;768.40;1382.40;;;;;;4973210;28;20046;-78
2023/10/20 12:26:24;;;;;;;22.17;7.18;;;768.30;1408.00;;;;;;4970181;28;20170;-77
2023/10/20 12:28:50;;;;;;;21.05;7.45;;;768.10;1408.00;;;;;;4953919;28;20047;-73
2023/10/20 12:31:17;;;;;;;17.98;7.22;;;768.00;1433.60;;;;;;4954015;28;20035;-76
2023/10/20 12:33:44;;;;;;;24.75;7.43;;;743.30;1408.00;;;;;;4953927;29;20024;-77